sensor_id;sensor_type;location;lat;lon;timestamp;pressure;altitude;pressure_sealevel;temperature;humidity
55576;BME280;41437;45.478;9.116;2023-11-22T00:02:39;99330.06;;;5.45;100.00
55576;BME280;41437;45.478;9.116;2023-11-22T00:05:41;99342.91;;;5.21;100.00
55576;BME280;41437;45.478;9.116;2023-11-22T00:08:42;99335.44;;;4.93;100.00
55576;BME280;41437;45.478;9.116;2023-11-22T00:11:43;99338.88;;;5.36;100.00
55576;BME280;41437;45.478;9.116;2023-11-22T00:14:46;99340.13;;;5.57;100.00
55576;BME280;41437;45.478;9.116;2023-11-22T00:17:48;99332.09;;;5.38;100.00
55576;BME280;41437;45.478;9.116;2023-11-22T00:20:49;99318.97;;;5.64;100.00
55576;BME280;41437;45.478;9.116;2023-11-22T00:23:51;99316.44;;;5.74;100.00
55576;BME280;41437;45.478;9.116;2023-11-22T00:26:52;99316.25;;;6.04;100.00
55576;BME280;41437;45.478;9.116;2023-11-22T00:29:55;99309.91;;;6.15;100.00
55576;BME280;41437;45.478;9.116;2023-11-22T00:32:56;99309.25;;;5.96;100.00
55576;BME280;41437;45.478;9.116;2023-11-22T00:35:58;99297.28;;;5.97;100.00
55576;BME280;41437;45.478;9.116;2023-11-22T00:38:59;99301.56;;;5.93;100.00
55576;BME280;41437;45.478;9.116;2023-11-22T00:42:01;99286.09;;;5.87;100.00
55576;BME280;41437;45.478;9.116;2023-11-22T00:45:05;99297.94;;;6.04;100.00
55576;BME280;41437;45.478;9.116;2023-11-22T00:48:07;99291.28;;;6.00;100.00
55576;BME280;41437;45.478;9.116;2023-11-22T00:51:09;99292.28;;;5.83;100.00
55576;BME280;41437;45.478;9.116;2023-11-22T00:54:11;99282.78;;;5.97;100.00
55576;BME280;41437;45.478;9.116;2023-11-22T00:57:12;99283.88;;;6.13;100.00
55576;BME280;41437;45.478;9.116;2023-11-22T01:00:15;99282.47;;;6.10;100.00
55576;BME280;41437;45.478;9.116;2023-11-22T01:03:17;99285.28;;;6.15;100.00
55576;BME280;41437;45.478;9.116;2023-11-22T01:06:18;99286.75;;;5.66;100.00
55576;BME280;41437;45.478;9.116;2023-11-22T01:09:19;99284.50;;;5.11;100.00
55576;BME280;41437;45.478;9.116;2023-11-22T01:12:21;99279.88;;;4.99;100.00
55576;BME280;41437;45.478;9.116;2023-11-22T01:15:24;99280.22;;;5.03;100.00
55576;BME280;41437;45.478;9.116;2023-11-22T01:18:25;99278.31;;;5.03;100.00
55576;BME280;41437;45.478;9.116;2023-11-22T01:21:27;99277.41;;;5.10;100.00
55576;BME280;41437;45.478;9.116;2023-11-22T01:24:28;99272.97;;;5.32;100.00
55576;BME280;41437;45.478;9.116;2023-11-22T01:27:30;99276.72;;;5.43;100.00
55576;BME280;41437;45.478;9.116;2023-11-22T01:30:32;99258.06;;;5.40;100.00
55576;BME280;41437;45.478;9.116;2023-11-22T01:33:34;99267.00;;;5.35;100.00
55576;BME280;41437;45.478;9.116;2023-11-22T01:36:37;99256.50;;;5.55;100.00
55576;BME280;41437;45.478;9.116;2023-11-22T01:39:39;99257.88;;;5.70;100.00
55576;BME280;41437;45.478;9.116;2023-11-22T01:42:41;99261.63;;;5.92;100.00
55576;BME280;41437;45.478;9.116;2023-11-22T01:45:43;99253.81;;;5.72;100.00
55576;BME280;41437;45.478;9.116;2023-11-22T01:48:45;99249.09;;;5.27;100.00
55576;BME280;41437;45.478;9.116;2023-11-22T01:51:46;99239.88;;;4.93;100.00
55576;BME280;41437;45.478;9.116;2023-11-22T01:54:48;99245.94;;;4.95;100.00
55576;BME280;41437;45.478;9.116;2023-11-22T01:57:50;99236.16;;;5.23;100.00
55576;BME280;41437;45.478;9.116;2023-11-22T02:00:53;99241.91;;;5.50;100.00
55576;BME280;41437;45.478;9.116;2023-11-22T02:03:54;99237.38;;;5.55;100.00
55576;BME280;41437;45.478;9.116;2023-11-22T02:06:56;99236.53;;;5.55;100.00
55576;BME280;41437;45.478;9.116;2023-11-22T02:09:57;99228.34;;;5.55;100.00
55576;BME280;41437;45.478;9.116;2023-11-22T02:12:59;99232.00;;;5.61;100.00
55576;BME280;41437;45.478;9.116;2023-11-22T02:16:06;99224.78;;;5.54;100.00
55576;BME280;41437;45.478;9.116;2023-11-22T02:19:08;99223.13;;;5.53;100.00
55576;BME280;41437;45.478;9.116;2023-11-22T02:22:13;99219.03;;;5.68;100.00
55576;BME280;41437;45.478;9.116;2023-11-22T02:25:16;99216.84;;;5.53;100.00
55576;BME280;41437;45.478;9.116;2023-11-22T02:28:17;99210.88;;;5.56;100.00
55576;BME280;41437;45.478;9.116;2023-11-22T02:31:18;99212.44;;;5.52;100.00
55576;BME280;41437;45.478;9.116;2023-11-22T02:34:20;99221.69;;;5.51;100.00
55576;BME280;41437;45.478;9.116;2023-11-22T02:37:21;99220.56;;;5.35;100.00
55576;BME280;41437;45.478;9.116;2023-11-22T02:40:26;99225.78;;;4.85;100.00
55576;BME280;41437;45.478;9.116;2023-11-22T02:43:28;99230.81;;;5.28;100.00
55576;BME280;41437;45.478;9.116;2023-11-22T02:46:29;99225.06;;;4.89;100.00
55576;BME280;41437;45.478;9.116;2023-11-22T02:49:31;99223.97;;;5.02;100.00
55576;BME280;41437;45.478;9.116;2023-11-22T02:52:33;99223.03;;;4.85;100.00
55576;BME280;41437;45.478;9.116;2023-11-22T02:55:36;99221.75;;;4.75;100.00
55576;BME280;41437;45.478;9.116;2023-11-22T02:58:37;99211.41;;;4.77;100.00
55576;BME280;41437;45.478;9.116;2023-11-22T03:01:38;99214.38;;;4.88;100.00
55576;BME280;41437;45.478;9.116;2023-11-22T03:04:42;99208.22;;;4.92;100.00
55576;BME280;41437;45.478;9.116;2023-11-22T03:07:44;99216.34;;;5.16;100.00
55576;BME280;41437;45.478;9.116;2023-11-22T03:10:47;99212.16;;;5.25;100.00
55576;BME280;41437;45.478;9.116;2023-11-22T03:13:48;99214.69;;;5.03;100.00
55576;BME280;41437;45.478;9.116;2023-11-22T03:16:50;99212.88;;;5.20;100.00
55576;BME280;41437;45.478;9.116;2023-11-22T03:19:51;99209.81;;;5.17;100.00
55576;BME280;41437;45.478;9.116;2023-11-22T03:22:52;99205.41;;;5.27;100.00
55576;BME280;41437;45.478;9.116;2023-11-22T03:25:56;99213.81;;;5.26;100.00
55576;BME280;41437;45.478;9.116;2023-11-22T03:28:58;99210.78;;;4.87;100.00
55576;BME280;41437;45.478;9.116;2023-11-22T03:31:59;99203.00;;;4.32;100.00
55576;BME280;41437;45.478;9.116;2023-11-22T03:35:01;99194.19;;;4.07;100.00
55576;BME280;41437;45.478;9.116;2023-11-22T03:38:05;99202.69;;;3.98;100.00
55576;BME280;41437;45.478;9.116;2023-11-22T03:41:08;99200.72;;;4.29;100.00
55576;BME280;41437;45.478;9.116;2023-11-22T03:44:09;99200.63;;;4.24;100.00
55576;BME280;41437;45.478;9.116;2023-11-22T03:47:11;99201.34;;;4.31;100.00
55576;BME280;41437;45.478;9.116;2023-11-22T03:50:13;99207.28;;;4.40;100.00
55576;BME280;41437;45.478;9.116;2023-11-22T03:53:14;99213.53;;;4.52;100.00
55576;BME280;41437;45.478;9.116;2023-11-22T03:56:17;99216.50;;;4.27;100.00
55576;BME280;41437;45.478;9.116;2023-11-22T03:59:19;99217.91;;;4.18;100.00
55576;BME280;41437;45.478;9.116;2023-11-22T04:02:20;99218.53;;;4.67;100.00
55576;BME280;41437;45.478;9.116;2023-11-22T04:05:22;99233.97;;;4.49;100.00
55576;BME280;41437;45.478;9.116;2023-11-22T04:08:23;99232.41;;;4.77;100.00
55576;BME280;41437;45.478;9.116;2023-11-22T04:11:26;99233.97;;;4.73;100.00
55576;BME280;41437;45.478;9.116;2023-11-22T04:14:29;99237.28;;;4.63;100.00
55576;BME280;41437;45.478;9.116;2023-11-22T04:17:30;99241.66;;;4.64;100.00
55576;BME280;41437;45.478;9.116;2023-11-22T04:20:32;99245.47;;;4.40;100.00
55576;BME280;41437;45.478;9.116;2023-11-22T04:23:34;99251.34;;;4.25;100.00
55576;BME280;41437;45.478;9.116;2023-11-22T04:26:37;99246.03;;;4.42;100.00
55576;BME280;41437;45.478;9.116;2023-11-22T04:29:39;99255.28;;;4.52;100.00
55576;BME280;41437;45.478;9.116;2023-11-22T04:32:40;99269.09;;;4.81;100.00
55576;BME280;41437;45.478;9.116;2023-11-22T04:35:42;99273.00;;;4.85;100.00
55576;BME280;41437;45.478;9.116;2023-11-22T04:38:43;99275.47;;;4.87;100.00
55576;BME280;41437;45.478;9.116;2023-11-22T04:41:46;99272.50;;;5.00;100.00
55576;BME280;41437;45.478;9.116;2023-11-22T04:44:47;99276.81;;;4.84;100.00
55576;BME280;41437;45.478;9.116;2023-11-22T04:47:49;99288.41;;;4.44;100.00
55576;BME280;41437;45.478;9.116;2023-11-22T04:50:50;99288.75;;;4.36;100.00
55576;BME280;41437;45.478;9.116;2023-11-22T04:53:51;99297.97;;;4.35;100.00
55576;BME280;41437;45.478;9.116;2023-11-22T04:56:54;99293.63;;;4.58;100.00
55576;BME280;41437;45.478;9.116;2023-11-22T04:59:56;99298.00;;;4.47;100.00
55576;BME280;41437;45.478;9.116;2023-11-22T05:02:57;99300.22;;;4.38;100.00
55576;BME280;41437;45.478;9.116;2023-11-22T05:05:59;99307.69;;;4.31;100.00
55576;BME280;41437;45.478;9.116;2023-11-22T05:09:00;99304.50;;;4.34;100.00
55576;BME280;41437;45.478;9.116;2023-11-22T05:12:03;99318.25;;;4.39;100.00
55576;BME280;41437;45.478;9.116;2023-11-22T05:15:05;99322.78;;;4.45;100.00
55576;BME280;41437;45.478;9.116;2023-11-22T05:18:06;99330.69;;;4.35;100.00
55576;BME280;41437;45.478;9.116;2023-11-22T05:21:08;99334.56;;;4.16;100.00
55576;BME280;41437;45.478;9.116;2023-11-22T05:24:09;99342.22;;;4.07;100.00
55576;BME280;41437;45.478;9.116;2023-11-22T05:27:12;99343.81;;;4.26;100.00
55576;BME280;41437;45.478;9.116;2023-11-22T05:30:14;99345.50;;;4.27;100.00
55576;BME280;41437;45.478;9.116;2023-11-22T05:33:17;99346.41;;;4.51;100.00
55576;BME280;41437;45.478;9.116;2023-11-22T05:36:18;99355.22;;;3.93;100.00
55576;BME280;41437;45.478;9.116;2023-11-22T05:39:20;99368.84;;;3.93;100.00
55576;BME280;41437;45.478;9.116;2023-11-22T05:42:23;99377.81;;;4.12;100.00
55576;BME280;41437;45.478;9.116;2023-11-22T05:45:26;99371.78;;;4.22;100.00
55576;BME280;41437;45.478;9.116;2023-11-22T05:48:27;99385.22;;;4.53;100.00
55576;BME280;41437;45.478;9.116;2023-11-22T05:51:30;99377.41;;;4.57;100.00
55576;BME280;41437;45.478;9.116;2023-11-22T05:54:32;99383.69;;;4.58;100.00
55576;BME280;41437;45.478;9.116;2023-11-22T05:57:35;99385.94;;;4.31;100.00
55576;BME280;41437;45.478;9.116;2023-11-22T06:00:36;99394.09;;;4.19;100.00
55576;BME280;41437;45.478;9.116;2023-11-22T06:03:38;99403.50;;;3.86;100.00
55576;BME280;41437;45.478;9.116;2023-11-22T06:06:40;99414.09;;;3.94;100.00
55576;BME280;41437;45.478;9.116;2023-11-22T06:09:41;99420.38;;;3.95;100.00
55576;BME280;41437;45.478;9.116;2023-11-22T06:12:44;99427.88;;;3.63;100.00
55576;BME280;41437;45.478;9.116;2023-11-22T06:15:45;99420.25;;;3.71;100.00
55576;BME280;41437;45.478;9.116;2023-11-22T06:18:47;99422.44;;;3.63;100.00
55576;BME280;41437;45.478;9.116;2023-11-22T06:21:49;99436.34;;;3.55;100.00
55576;BME280;41437;45.478;9.116;2023-11-22T06:24:50;99426.31;;;3.92;100.00
55576;BME280;41437;45.478;9.116;2023-11-22T06:27:53;99436.72;;;4.13;100.00
55576;BME280;41437;45.478;9.116;2023-11-22T06:30:56;99440.59;;;4.24;100.00
55576;BME280;41437;45.478;9.116;2023-11-22T06:33:57;99447.44;;;4.45;100.00
55576;BME280;41437;45.478;9.116;2023-11-22T06:36:59;99450.44;;;4.55;100.00
55576;BME280;41437;45.478;9.116;2023-11-22T06:40:01;99450.25;;;4.38;100.00
55576;BME280;41437;45.478;9.116;2023-11-22T06:43:04;99460.66;;;4.60;100.00
55576;BME280;41437;45.478;9.116;2023-11-22T06:46:05;99468.97;;;4.65;100.00
55576;BME280;41437;45.478;9.116;2023-11-22T06:49:07;99479.97;;;4.28;100.00
55576;BME280;41437;45.478;9.116;2023-11-22T06:52:09;99480.34;;;3.76;100.00
55576;BME280;41437;45.478;9.116;2023-11-22T06:55:10;99481.78;;;3.79;100.00
55576;BME280;41437;45.478;9.116;2023-11-22T06:58:13;99489.88;;;4.04;100.00
55576;BME280;41437;45.478;9.116;2023-11-22T07:01:22;99493.47;;;4.23;100.00
55576;BME280;41437;45.478;9.116;2023-11-22T07:04:23;99492.63;;;4.22;100.00
55576;BME280;41437;45.478;9.116;2023-11-22T07:07:25;99495.25;;;4.47;100.00
55576;BME280;41437;45.478;9.116;2023-11-22T07:10:26;99503.00;;;4.32;100.00
55576;BME280;41437;45.478;9.116;2023-11-22T07:13:29;99505.69;;;3.77;100.00
55576;BME280;41437;45.478;9.116;2023-11-22T07:16:31;99512.06;;;3.71;100.00
55576;BME280;41437;45.478;9.116;2023-11-22T07:19:33;99511.38;;;3.75;100.00
55576;BME280;41437;45.478;9.116;2023-11-22T07:22:38;99515.25;;;3.86;100.00
55576;BME280;41437;45.478;9.116;2023-11-22T07:25:41;99521.56;;;4.23;100.00
55576;BME280;41437;45.478;9.116;2023-11-22T07:28:45;99530.56;;;4.24;100.00
55576;BME280;41437;45.478;9.116;2023-11-22T07:31:46;99532.09;;;4.20;100.00
55576;BME280;41437;45.478;9.116;2023-11-22T07:34:47;99541.03;;;4.45;100.00
55576;BME280;41437;45.478;9.116;2023-11-22T07:37:49;99534.75;;;4.45;100.00
55576;BME280;41437;45.478;9.116;2023-11-22T07:40:51;99540.72;;;4.53;100.00
55576;BME280;41437;45.478;9.116;2023-11-22T07:43:54;99550.28;;;4.44;100.00
55576;BME280;41437;45.478;9.116;2023-11-22T07:46:56;99559.31;;;4.93;100.00
55576;BME280;41437;45.478;9.116;2023-11-22T07:49:59;99562.44;;;4.60;100.00
55576;BME280;41437;45.478;9.116;2023-11-22T07:53:03;99574.00;;;4.62;100.00
55576;BME280;41437;45.478;9.116;2023-11-22T07:56:05;99569.47;;;4.86;100.00
55576;BME280;41437;45.478;9.116;2023-11-22T07:59:08;99576.44;;;4.82;100.00
55576;BME280;41437;45.478;9.116;2023-11-22T08:02:10;99580.38;;;4.86;100.00
55576;BME280;41437;45.478;9.116;2023-11-22T08:05:12;99591.63;;;5.38;100.00
55576;BME280;41437;45.478;9.116;2023-11-22T08:08:15;99595.59;;;5.66;100.00
55576;BME280;41437;45.478;9.116;2023-11-22T08:11:16;99591.81;;;5.55;100.00
55576;BME280;41437;45.478;9.116;2023-11-22T08:14:23;99610.47;;;5.58;100.00
55576;BME280;41437;45.478;9.116;2023-11-22T08:17:27;99614.06;;;5.82;100.00
55576;BME280;41437;45.478;9.116;2023-11-22T08:20:29;99620.94;;;6.15;100.00
55576;BME280;41437;45.478;9.116;2023-11-22T08:23:31;99618.31;;;6.32;100.00
55576;BME280;41437;45.478;9.116;2023-11-22T08:26:32;99611.75;;;6.44;100.00
55576;BME280;41437;45.478;9.116;2023-11-22T08:29:35;99621.59;;;6.69;100.00
55576;BME280;41437;45.478;9.116;2023-11-22T08:32:37;99622.25;;;6.88;100.00
55576;BME280;41437;45.478;9.116;2023-11-22T08:35:38;99615.09;;;6.98;100.00
55576;BME280;41437;45.478;9.116;2023-11-22T08:38:40;99621.25;;;7.34;100.00
55576;BME280;41437;45.478;9.116;2023-11-22T08:41:43;99624.59;;;7.36;100.00
55576;BME280;41437;45.478;9.116;2023-11-22T08:44:46;99624.97;;;7.56;100.00
55576;BME280;41437;45.478;9.116;2023-11-22T08:47:47;99619.16;;;7.70;100.00
55576;BME280;41437;45.478;9.116;2023-11-22T08:50:51;99627.50;;;7.75;100.00
55576;BME280;41437;45.478;9.116;2023-11-22T08:53:54;99636.41;;;7.99;100.00
55576;BME280;41437;45.478;9.116;2023-11-22T08:56:55;99648.63;;;8.08;100.00
55576;BME280;41437;45.478;9.116;2023-11-22T08:59:58;99647.13;;;8.17;100.00
55576;BME280;41437;45.478;9.116;2023-11-22T09:03:06;99657.00;;;8.18;100.00
55576;BME280;41437;45.478;9.116;2023-11-22T09:06:07;99658.03;;;8.29;100.00
55576;BME280;41437;45.478;9.116;2023-11-22T09:09:09;99663.22;;;8.42;100.00
55576;BME280;41437;45.478;9.116;2023-11-22T09:12:15;99679.06;;;8.57;100.00
55576;BME280;41437;45.478;9.116;2023-11-22T09:15:20;99683.38;;;8.70;100.00
55576;BME280;41437;45.478;9.116;2023-11-22T09:18:26;99676.53;;;8.89;100.00
55576;BME280;41437;45.478;9.116;2023-11-22T09:21:28;99676.47;;;9.06;100.00
55576;BME280;41437;45.478;9.116;2023-11-22T09:24:29;99677.69;;;9.15;100.00
55576;BME280;41437;45.478;9.116;2023-11-22T09:27:31;99681.44;;;9.31;100.00
55576;BME280;41437;45.478;9.116;2023-11-22T09:30:34;99686.25;;;9.41;100.00
55576;BME280;41437;45.478;9.116;2023-11-22T09:33:38;99699.41;;;9.61;100.00
55576;BME280;41437;45.478;9.116;2023-11-22T09:36:39;99695.31;;;9.63;100.00
55576;BME280;41437;45.478;9.116;2023-11-22T09:39:41;99703.69;;;10.05;100.00
55576;BME280;41437;45.478;9.116;2023-11-22T09:42:43;99710.91;;;11.86;100.00
55576;BME280;41437;45.478;9.116;2023-11-22T09:45:48;99724.44;;;14.29;100.00
55576;BME280;41437;45.478;9.116;2023-11-22T09:48:50;99740.31;;;14.58;96.36
55576;BME280;41437;45.478;9.116;2023-11-22T09:51:54;99741.47;;;14.13;94.36
55576;BME280;41437;45.478;9.116;2023-11-22T09:54:56;99729.75;;;12.86;100.00
55576;BME280;41437;45.478;9.116;2023-11-22T09:57:58;99732.53;;;12.40;100.00
55576;BME280;41437;45.478;9.116;2023-11-22T10:01:02;99746.81;;;11.96;100.00
55576;BME280;41437;45.478;9.116;2023-11-22T10:04:04;99735.53;;;11.40;100.00
55576;BME280;41437;45.478;9.116;2023-11-22T10:07:07;99742.69;;;11.36;100.00
55576;BME280;41437;45.478;9.116;2023-11-22T10:10:09;99751.28;;;11.40;100.00
55576;BME280;41437;45.478;9.116;2023-11-22T10:13:11;99758.22;;;11.52;100.00
55576;BME280;41437;45.478;9.116;2023-11-22T10:16:14;99759.81;;;11.38;100.00
55576;BME280;41437;45.478;9.116;2023-11-22T10:19:17;99764.22;;;11.34;100.00
55576;BME280;41437;45.478;9.116;2023-11-22T10:22:19;99759.72;;;11.23;100.00
55576;BME280;41437;45.478;9.116;2023-11-22T10:25:21;99747.00;;;11.74;100.00
55576;BME280;41437;45.478;9.116;2023-11-22T10:28:25;99753.09;;;11.71;100.00
55576;BME280;41437;45.478;9.116;2023-11-22T10:31:29;99743.72;;;11.77;100.00
55576;BME280;41437;45.478;9.116;2023-11-22T10:34:30;99739.09;;;11.98;100.00
55576;BME280;41437;45.478;9.116;2023-11-22T10:37:32;99741.88;;;12.03;100.00
55576;BME280;41437;45.478;9.116;2023-11-22T10:40:34;99741.63;;;12.25;100.00
55576;BME280;41437;45.478;9.116;2023-11-22T10:43:37;99756.31;;;12.41;100.00
55576;BME280;41437;45.478;9.116;2023-11-22T10:46:40;99757.13;;;12.42;100.00
55576;BME280;41437;45.478;9.116;2023-11-22T10:49:42;99766.81;;;12.65;100.00
55576;BME280;41437;45.478;9.116;2023-11-22T10:52:43;99763.50;;;12.63;100.00
55576;BME280;41437;45.478;9.116;2023-11-22T10:55:46;99756.31;;;12.72;100.00
55576;BME280;41437;45.478;9.116;2023-11-22T10:58:49;99770.66;;;12.99;98.22
55576;BME280;41437;45.478;9.116;2023-11-22T11:01:53;99773.38;;;13.15;97.47
55576;BME280;41437;45.478;9.116;2023-11-22T11:04:58;99762.91;;;13.12;97.67
55576;BME280;41437;45.478;9.116;2023-11-22T11:08:05;99771.47;;;13.15;88.27
55576;BME280;41437;45.478;9.116;2023-11-22T11:11:11;99767.88;;;13.09;93.19
55576;BME280;41437;45.478;9.116;2023-11-22T11:14:15;99786.41;;;13.29;93.83
55576;BME280;41437;45.478;9.116;2023-11-22T11:17:19;99777.28;;;13.29;91.10
55576;BME280;41437;45.478;9.116;2023-11-22T11:20:22;99778.63;;;13.31;91.91
55576;BME280;41437;45.478;9.116;2023-11-22T11:23:25;99787.47;;;13.44;91.58
55576;BME280;41437;45.478;9.116;2023-11-22T11:26:27;99797.44;;;13.40;86.70
55576;BME280;41437;45.478;9.116;2023-11-22T11:29:30;99791.91;;;13.35;92.04
55576;BME280;41437;45.478;9.116;2023-11-22T11:32:33;99788.28;;;13.49;89.51
55576;BME280;41437;45.478;9.116;2023-11-22T11:35:38;99787.44;;;13.49;84.60
55576;BME280;41437;45.478;9.116;2023-11-22T11:38:40;99791.06;;;13.44;82.01
55576;BME280;41437;45.478;9.116;2023-11-22T11:41:42;99794.34;;;13.56;78.11
55576;BME280;41437;45.478;9.116;2023-11-22T11:45:06;99782.16;;;13.63;81.35
55576;BME280;41437;45.478;9.116;2023-11-22T11:48:09;99782.72;;;13.60;80.21
55576;BME280;41437;45.478;9.116;2023-11-22T11:51:13;99787.13;;;13.61;83.56
55576;BME280;41437;45.478;9.116;2023-11-22T11:54:16;99786.00;;;13.67;82.00
55576;BME280;41437;45.478;9.116;2023-11-22T11:57:17;99777.75;;;13.56;80.61
55576;BME280;41437;45.478;9.116;2023-11-22T12:00:19;99776.06;;;13.61;81.91
55576;BME280;41437;45.478;9.116;2023-11-22T12:03:24;99790.97;;;13.70;81.69
55576;BME280;41437;45.478;9.116;2023-11-22T12:06:26;99796.19;;;13.87;79.93
55576;BME280;41437;45.478;9.116;2023-11-22T12:09:27;99806.97;;;13.88;77.45
55576;BME280;41437;45.478;9.116;2023-11-22T12:12:30;99811.41;;;13.84;80.08
55576;BME280;41437;45.478;9.116;2023-11-22T12:15:31;99804.13;;;14.03;80.54
55576;BME280;41437;45.478;9.116;2023-11-22T12:18:40;99803.34;;;13.93;80.61
55576;BME280;41437;45.478;9.116;2023-11-22T12:21:43;99802.03;;;13.75;84.26
55576;BME280;41437;45.478;9.116;2023-11-22T12:24:45;99807.63;;;13.65;83.50
55576;BME280;41437;45.478;9.116;2023-11-22T12:27:46;99809.81;;;13.73;78.50
55576;BME280;41437;45.478;9.116;2023-11-22T12:30:49;99810.31;;;13.80;76.04
55576;BME280;41437;45.478;9.116;2023-11-22T12:33:52;99812.78;;;13.92;69.77
55576;BME280;41437;45.478;9.116;2023-11-22T12:36:55;99810.81;;;13.92;69.72
55576;BME280;41437;45.478;9.116;2023-11-22T12:39:56;99810.25;;;13.95;67.47
55576;BME280;41437;45.478;9.116;2023-11-22T12:42:58;99794.50;;;13.91;68.26
55576;BME280;41437;45.478;9.116;2023-11-22T12:46:02;99794.78;;;13.84;65.96
55576;BME280;41437;45.478;9.116;2023-11-22T12:49:08;99792.84;;;13.90;65.19
55576;BME280;41437;45.478;9.116;2023-11-22T12:52:11;99788.03;;;14.11;63.94
55576;BME280;41437;45.478;9.116;2023-11-22T12:55:12;99789.91;;;14.20;61.63
55576;BME280;41437;45.478;9.116;2023-11-22T12:58:14;99785.16;;;14.26;60.58
55576;BME280;41437;45.478;9.116;2023-11-22T13:01:15;99787.34;;;14.34;58.52
55576;BME280;41437;45.478;9.116;2023-11-22T13:04:18;99788.72;;;14.31;55.79
55576;BME280;41437;45.478;9.116;2023-11-22T13:07:20;99788.53;;;14.18;60.57
55576;BME280;41437;45.478;9.116;2023-11-22T13:10:21;99787.41;;;14.24;55.83
55576;BME280;41437;45.478;9.116;2023-11-22T13:13:26;99795.94;;;14.32;55.76
55576;BME280;41437;45.478;9.116;2023-11-22T13:16:28;99791.31;;;14.18;53.35
55576;BME280;41437;45.478;9.116;2023-11-22T13:19:31;99790.28;;;14.03;55.64
55576;BME280;41437;45.478;9.116;2023-11-22T13:22:32;99787.81;;;13.97;58.73
55576;BME280;41437;45.478;9.116;2023-11-22T13:25:34;99782.00;;;13.98;58.71
55576;BME280;41437;45.478;9.116;2023-11-22T13:28:36;99785.28;;;14.05;59.30
55576;BME280;41437;45.478;9.116;2023-11-22T13:31:38;99793.09;;;13.98;58.56
55576;BME280;41437;45.478;9.116;2023-11-22T13:34:41;99790.81;;;14.05;59.21
55576;BME280;41437;45.478;9.116;2023-11-22T13:37:45;99792.84;;;13.90;60.33
55576;BME280;41437;45.478;9.116;2023-11-22T13:40:47;99800.81;;;14.01;61.08
55576;BME280;41437;45.478;9.116;2023-11-22T13:43:49;99791.44;;;13.92;61.88
55576;BME280;41437;45.478;9.116;2023-11-22T13:46:51;99785.97;;;13.77;62.65
55576;BME280;41437;45.478;9.116;2023-11-22T13:49:54;99795.13;;;13.72;64.93
55576;BME280;41437;45.478;9.116;2023-11-22T13:52:57;99776.34;;;13.64;65.68
55576;BME280;41437;45.478;9.116;2023-11-22T13:55:59;99780.97;;;13.79;65.26
55576;BME280;41437;45.478;9.116;2023-11-22T13:59:02;99792.78;;;14.00;64.89
55576;BME280;41437;45.478;9.116;2023-11-22T14:02:03;99800.09;;;13.80;66.35
55576;BME280;41437;45.478;9.116;2023-11-22T14:05:07;99788.47;;;13.73;64.27
55576;BME280;41437;45.478;9.116;2023-11-22T14:08:09;99796.00;;;13.57;65.62
55576;BME280;41437;45.478;9.116;2023-11-22T14:11:11;99801.81;;;13.61;65.24
55576;BME280;41437;45.478;9.116;2023-11-22T14:14:13;99806.53;;;13.61;65.20
55576;BME280;41437;45.478;9.116;2023-11-22T14:17:14;99815.13;;;13.59;63.80
55576;BME280;41437;45.478;9.116;2023-11-22T14:20:21;99814.84;;;13.55;65.50
55576;BME280;41437;45.478;9.116;2023-11-22T14:23:22;99805.97;;;13.64;67.25
55576;BME280;41437;45.478;9.116;2023-11-22T14:26:24;99808.97;;;13.72;64.39
55576;BME280;41437;45.478;9.116;2023-11-22T14:29:26;99805.38;;;13.67;64.54
55576;BME280;41437;45.478;9.116;2023-11-22T14:32:28;99816.53;;;13.46;67.57
55576;BME280;41437;45.478;9.116;2023-11-22T14:35:32;99826.75;;;13.56;64.60
55576;BME280;41437;45.478;9.116;2023-11-22T14:38:33;99833.69;;;13.48;62.55
55576;BME280;41437;45.478;9.116;2023-11-22T14:41:35;99843.38;;;13.46;66.96
55576;BME280;41437;45.478;9.116;2023-11-22T14:44:37;99832.84;;;13.53;65.50
55576;BME280;41437;45.478;9.116;2023-11-22T14:47:39;99846.44;;;13.34;67.18
55576;BME280;41437;45.478;9.116;2023-11-22T14:50:43;99844.22;;;13.00;66.25
55576;BME280;41437;45.478;9.116;2023-11-22T14:53:45;99861.38;;;12.92;71.07
55576;BME280;41437;45.478;9.116;2023-11-22T14:56:46;99861.38;;;13.07;69.00
55576;BME280;41437;45.478;9.116;2023-11-22T14:59:48;99865.25;;;13.06;64.27
55576;BME280;41437;45.478;9.116;2023-11-22T15:02:50;99865.81;;;13.03;62.96
55576;BME280;41437;45.478;9.116;2023-11-22T15:05:55;99864.13;;;12.87;63.42
55576;BME280;41437;45.478;9.116;2023-11-22T15:08:57;99881.00;;;12.91;65.68
55576;BME280;41437;45.478;9.116;2023-11-22T15:11:59;99882.94;;;12.80;64.61
55576;BME280;41437;45.478;9.116;2023-11-22T15:15:03;99874.06;;;12.83;64.97
55576;BME280;41437;45.478;9.116;2023-11-22T15:18:05;99875.72;;;12.58;64.63
55576;BME280;41437;45.478;9.116;2023-11-22T15:21:08;99878.44;;;12.48;67.07
55576;BME280;41437;45.478;9.116;2023-11-22T15:24:09;99880.34;;;12.32;66.81
55576;BME280;41437;45.478;9.116;2023-11-22T15:27:11;99887.75;;;12.17;67.96
55576;BME280;41437;45.478;9.116;2023-11-22T15:30:13;99890.97;;;11.98;71.51
55576;BME280;41437;45.478;9.116;2023-11-22T15:33:16;99895.84;;;11.81;72.86
55576;BME280;41437;45.478;9.116;2023-11-22T15:36:20;99904.50;;;11.57;75.87
55576;BME280;41437;45.478;9.116;2023-11-22T15:39:21;99904.84;;;11.24;79.81
55576;BME280;41437;45.478;9.116;2023-11-22T15:42:23;99902.69;;;10.99;82.76
55576;BME280;41437;45.478;9.116;2023-11-22T15:45:24;99911.81;;;10.72;86.30
55576;BME280;41437;45.478;9.116;2023-11-22T15:48:26;99915.13;;;10.47;88.92
55576;BME280;41437;45.478;9.116;2023-11-22T15:51:29;99921.03;;;10.34;91.78
55576;BME280;41437;45.478;9.116;2023-11-22T15:54:31;99929.25;;;10.12;93.75
55576;BME280;41437;45.478;9.116;2023-11-22T15:57:32;99934.13;;;10.05;95.88
55576;BME280;41437;45.478;9.116;2023-11-22T16:00:34;99940.44;;;10.05;100.00
55576;BME280;41437;45.478;9.116;2023-11-22T16:03:36;99951.25;;;10.29;100.00
55576;BME280;41437;45.478;9.116;2023-11-22T16:06:40;99951.97;;;10.41;100.00